createdAt,value
2022-09-02T00:00:46.213Z,59.32
2022-09-02T00:03:14.553Z,59.32
2022-09-02T00:05:42.761Z,59.12
2022-09-02T00:08:11.440Z,59.19
2022-09-02T00:10:41.972Z,59.37
2022-09-02T00:13:11.924Z,59.45
2022-09-02T00:15:40.048Z,59.32
2022-09-02T00:18:15.158Z,59.08
2022-09-02T00:20:47.109Z,59.21
2022-09-02T00:23:15.817Z,59.07
2022-09-02T00:29:52.671Z,59.59
2022-09-02T00:32:20.367Z,59.52
2022-09-02T00:38:57.596Z,59.80
2022-09-02T00:45:35.712Z,59.48
2022-09-02T00:48:04.624Z,59.68
2022-09-02T00:50:37.008Z,59.44
2022-09-02T00:53:11.578Z,59.25
2022-09-02T00:55:46.507Z,59.29
2022-09-02T00:58:25.769Z,59.21
2022-09-02T01:00:57.031Z,59.38
2022-09-02T01:03:28.925Z,59.30
2022-09-02T01:05:58.889Z,59.02
2022-09-02T01:08:31.038Z,59.15
2022-09-02T01:15:12.185Z,59.36
2022-09-02T01:17:47.676Z,59.49
2022-09-02T01:20:20.598Z,59.44
2022-09-02T01:22:53.451Z,59.35
2022-09-02T01:25:26.213Z,59.74
2022-09-02T01:27:54.007Z,59.66
2022-09-02T01:34:31.217Z,59.80
2022-09-02T01:36:58.461Z,59.65
2022-09-02T01:39:25.687Z,59.76
2022-09-02T01:41:53.632Z,59.71
2022-09-02T01:44:20.876Z,59.75
2022-09-02T01:46:48.157Z,59.87
2022-09-02T01:49:15.439Z,59.95
2022-09-02T01:55:34.799Z,59.80
2022-09-02T01:58:02.557Z,59.67
2022-09-02T02:00:30.651Z,59.72
2022-09-02T02:02:58.087Z,59.78
2022-09-02T02:09:17.807Z,59.90
2022-09-02T02:11:45.746Z,60.03
2022-09-02T02:14:13.349Z,59.87
2022-09-02T02:29:08.649Z,60.34
2022-09-02T02:31:36.220Z,60.34
2022-09-02T02:34:04.441Z,60.29
2022-09-02T02:36:32.358Z,60.18
2022-09-02T02:39:00.342Z,60.14
2022-09-02T02:41:29.963Z,60.30
2022-09-02T02:43:57.579Z,60.39
2022-09-02T02:50:09.266Z,60.35
2022-09-02T02:52:38.324Z,60.25
2022-09-02T02:58:57.895Z,60.42
2022-09-02T03:01:25.524Z,60.45
2022-09-02T03:03:53.168Z,60.45
2022-09-02T03:06:22.929Z,60.22
2022-09-02T03:20:19.379Z,60.51
2022-09-02T03:22:50.279Z,60.39
2022-09-02T03:29:11.930Z,60.37
2022-09-02T03:31:39.562Z,60.44
2022-09-02T03:34:07.431Z,60.42
2022-09-02T03:36:40.197Z,60.24
2022-09-02T03:39:09.992Z,60.33
2022-09-02T03:45:40.989Z,60.40
2022-09-02T03:48:09.301Z,60.45
2022-09-02T03:54:17.958Z,60.75
2022-09-02T03:56:46.046Z,60.44
2022-09-02T03:59:13.606Z,60.24
2022-09-02T04:01:41.098Z,60.41
2022-09-02T04:08:00.478Z,60.58
2022-09-02T04:14:19.308Z,60.51
2022-09-02T04:16:47.018Z,60.64
2022-09-02T04:19:14.619Z,60.53
2022-09-02T04:21:42.671Z,60.86
2022-09-02T04:24:11.819Z,60.83
2022-09-02T04:26:44.947Z,60.62
2022-09-02T04:33:04.299Z,60.45
2022-09-02T04:39:24.911Z,60.79
2022-09-02T04:45:46.358Z,60.86
2022-09-02T04:48:13.992Z,60.92
2022-09-02T04:54:22.736Z,60.92
2022-09-02T05:00:31.803Z,61.03
2022-09-02T05:06:44.283Z,60.95
2022-09-02T05:09:12.142Z,60.83
2022-09-02T05:11:52.813Z,60.76
2022-09-02T05:14:20.328Z,60.69
2022-09-02T05:16:47.904Z,60.75
2022-09-02T05:19:18.439Z,60.26
2022-09-02T05:25:54.526Z,59.94
2022-09-02T05:28:27.036Z,59.66
2022-09-02T05:30:54.762Z,59.57
2022-09-02T05:37:04.443Z,59.73
2022-09-02T05:39:32.409Z,59.56
2022-09-02T05:42:00.362Z,59.62
2022-09-02T05:44:28.167Z,59.69
2022-09-02T05:46:55.731Z,59.67
2022-09-02T05:49:23.303Z,59.50
2022-09-02T05:51:58.060Z,59.39
2022-09-02T05:54:30.809Z,59.31
2022-09-02T05:57:05.044Z,59.53
2022-09-02T05:59:41.037Z,59.32
2022-09-02T06:02:13.002Z,59.41
2022-09-02T06:08:21.981Z,59.30
2022-09-02T06:14:31.256Z,59.32
2022-09-02T06:20:47.993Z,59.10
2022-09-02T06:23:17.002Z,59.04
2022-09-02T06:25:46.610Z,58.61
2022-09-02T06:28:15.189Z,58.23
2022-09-02T06:30:45.408Z,58.40
2022-09-02T06:33:13.511Z,58.37
2022-09-02T06:35:44.558Z,58.37
2022-09-02T06:38:13.432Z,58.19
2022-09-02T06:40:52.629Z,58.29
2022-09-02T06:43:20.601Z,58.33
2022-09-02T06:45:48.412Z,58.16
2022-09-02T06:48:15.971Z,57.77
2022-09-02T06:50:46.392Z,57.38
2022-09-02T06:53:14.360Z,57.62
2022-09-02T06:55:44.559Z,58.02
2022-09-02T06:58:12.852Z,57.78
2022-09-02T07:00:41.446Z,57.59
2022-09-02T07:03:10.196Z,57.59
2022-09-02T07:05:37.834Z,57.28
2022-09-02T07:08:05.403Z,56.97
2022-09-02T07:10:33.011Z,56.79
2022-09-02T07:13:00.504Z,56.83
2022-09-02T07:15:28.058Z,56.88
2022-09-02T07:17:55.585Z,57.04
2022-09-02T07:20:23.432Z,56.91
2022-09-02T07:29:15.635Z,56.29
2022-09-02T07:31:46.943Z,56.04
2022-09-02T07:34:15.203Z,56.23
2022-09-02T07:36:43.166Z,56.12
2022-09-02T07:39:13.046Z,56.04
2022-09-02T07:41:45.913Z,56.35
2022-09-02T07:44:14.080Z,56.05
2022-09-02T07:46:41.844Z,55.65
2022-09-02T07:49:13.167Z,55.21
2022-09-02T07:51:43.147Z,55.14
2022-09-02T07:54:12.397Z,55.12
2022-09-02T07:56:40.166Z,54.65
2022-09-02T07:59:07.308Z,54.29
2022-09-02T08:01:35.261Z,54.43
2022-09-02T08:04:06.161Z,54.25
2022-09-02T08:06:34.798Z,53.97
2022-09-02T08:09:09.622Z,54.09
2022-09-02T08:11:40.736Z,54.36
2022-09-02T08:14:12.507Z,54.68
2022-09-02T08:16:40.777Z,53.87
2022-09-02T08:19:09.133Z,53.98
2022-09-02T08:21:36.447Z,54.58
2022-09-02T08:24:04.314Z,54.29
2022-09-02T08:26:32.092Z,54.14
2022-09-02T08:28:59.996Z,52.76
2022-09-02T08:31:27.375Z,52.85
2022-09-02T08:33:54.708Z,52.38
2022-09-02T08:36:22.008Z,51.83
2022-09-02T08:38:49.231Z,51.56
2022-09-02T08:41:38.304Z,50.63
2022-09-02T08:44:07.584Z,51.42
2022-09-02T08:46:35.510Z,51.62
2022-09-02T08:49:13.413Z,50.51
2022-09-02T08:52:00.863Z,50.78
2022-09-02T08:54:37.506Z,51.65
2022-09-02T08:57:05.867Z,50.92
2022-09-02T08:59:33.695Z,51.00
2022-09-02T09:02:36.324Z,50.22
2022-09-02T09:05:38.623Z,50.70
2022-09-02T09:08:38.920Z,50.31
2022-09-02T09:11:21.331Z,50.90
2022-09-02T09:14:10.155Z,50.59
2022-09-02T09:16:55.314Z,50.77
2022-09-02T09:19:49.774Z,50.75
2022-09-02T09:22:22.656Z,50.63
2022-09-02T09:24:51.197Z,50.75
2022-09-02T09:27:22.222Z,50.18
2022-09-02T09:29:53.277Z,50.32
2022-09-02T09:32:33.755Z,49.84
2022-09-02T09:35:07.216Z,49.29
2022-09-02T09:37:46.040Z,48.39
2022-09-02T09:40:19.564Z,48.18
2022-09-02T09:43:05.891Z,47.90
2022-09-02T09:45:49.606Z,48.23
2022-09-02T09:48:21.594Z,48.11
2022-09-02T09:50:56.112Z,47.84
2022-09-02T09:53:32.184Z,47.86
2022-09-02T09:56:05.718Z,47.89
2022-09-02T09:58:40.586Z,46.05
2022-09-02T10:01:33.348Z,45.94
2022-09-02T10:04:44.154Z,45.56
2022-09-02T10:07:12.437Z,45.08
2022-09-02T10:09:39.659Z,44.82
2022-09-02T10:12:13.163Z,45.29
2022-09-02T10:14:49.890Z,45.15
2022-09-02T10:18:05.348Z,45.10
2022-09-02T10:20:48.639Z,43.44
2022-09-02T10:23:47.459Z,43.40
2022-09-02T10:29:02.117Z,42.00
2022-09-02T10:31:40.747Z,42.63
2022-09-02T10:34:32.592Z,40.25
2022-09-02T10:37:20.832Z,38.75
2022-09-02T10:40:08.121Z,37.05
2022-09-02T10:42:35.710Z,36.24
2022-09-02T10:45:35.050Z,34.69
2022-09-02T10:48:24.309Z,31.90
2022-09-02T10:51:15.306Z,30.94
2022-09-02T10:54:11.438Z,29.27
2022-09-02T10:56:59.675Z,27.86
2022-09-02T10:59:32.432Z,27.04
2022-09-02T11:02:32.004Z,26.19
2022-09-02T11:05:24.880Z,26.18
2022-09-02T11:08:01.735Z,25.43
2022-09-02T11:10:42.815Z,25.00
2022-09-02T11:13:31.639Z,24.60
2022-09-02T11:16:21.362Z,23.43
2022-09-02T11:19:12.361Z,24.00
2022-09-02T11:22:05.430Z,22.82
2022-09-02T11:24:43.308Z,23.59
2022-09-02T11:27:43.073Z,23.16
2022-09-02T11:30:18.517Z,24.09
2022-09-02T11:33:06.774Z,24.00
2022-09-02T11:35:37.721Z,22.95
2022-09-02T11:38:52.067Z,23.45
2022-09-02T11:41:48.872Z,23.55
2022-09-02T11:44:26.986Z,23.48
2022-09-02T11:47:28.382Z,23.29
2022-09-02T11:50:52.702Z,24.55
2022-09-02T11:53:39.861Z,24.16
2022-09-02T11:56:21.384Z,23.88
2022-09-02T11:58:52.256Z,22.72
2022-09-02T12:01:28.957Z,24.45
2022-09-02T12:04:59.265Z,24.80
2022-09-02T12:07:13.032Z,25.27
2022-09-02T12:09:55.939Z,25.63
2022-09-02T12:12:44.617Z,26.87
2022-09-02T12:15:19.919Z,27.84
2022-09-02T12:17:50.552Z,28.73
2022-09-02T12:20:40.138Z,27.30
2022-09-02T12:23:11.346Z,28.33
2022-09-02T12:25:49.594Z,31.71
2022-09-02T12:28:31.149Z,34.18
2022-09-02T12:30:58.553Z,35.83
2022-09-02T12:33:43.643Z,32.85
2022-09-02T12:36:36.805Z,33.35
2022-09-02T12:39:42.101Z,32.92
2022-09-02T12:42:09.201Z,34.75
2022-09-02T12:45:29.170Z,32.23
2022-09-02T12:48:07.675Z,32.30
2022-09-02T12:50:57.898Z,31.68
2022-09-02T12:53:25.047Z,28.85
2022-09-02T12:56:00.921Z,30.23
2022-09-02T12:58:35.380Z,30.55
2022-09-02T13:01:42.712Z,28.25
2022-09-02T13:04:31.340Z,26.72
2022-09-02T13:07:54.598Z,27.92
2022-09-02T13:11:19.546Z,26.31
2022-09-02T13:14:25.860Z,26.14
2022-09-02T13:17:42.505Z,28.12
2022-09-02T13:21:08.293Z,24.78
2022-09-02T13:24:19.082Z,24.81
2022-09-02T13:27:05.003Z,24.99
2022-09-02T13:30:11.068Z,28.73
2022-09-02T13:32:39.024Z,26.23
2022-09-02T13:35:24.038Z,26.43
2022-09-02T13:38:00.211Z,28.01
2022-09-02T13:40:34.691Z,28.47
2022-09-02T13:43:15.374Z,26.79
2022-09-02T13:45:44.513Z,27.26
2022-09-02T13:48:19.367Z,28.18
2022-09-02T13:50:49.767Z,29.00
2022-09-02T13:53:45.770Z,28.74
2022-09-02T13:56:30.033Z,28.66
2022-09-02T13:58:57.199Z,28.41
2022-09-02T14:01:36.203Z,28.79
2022-09-02T14:04:13.959Z,28.06
2022-09-02T14:06:46.630Z,28.73
2022-09-02T14:09:29.731Z,28.86
2022-09-02T14:12:00.406Z,28.33
2022-09-02T14:14:29.103Z,28.48
2022-09-02T14:17:26.114Z,28.09
2022-09-02T14:20:22.841Z,28.36
2022-09-02T14:22:59.483Z,28.42
2022-09-02T14:25:32.788Z,28.48
2022-09-02T14:28:00.888Z,28.75
2022-09-02T14:30:38.380Z,28.50
2022-09-02T14:33:36.687Z,28.92
2022-09-02T14:36:16.284Z,29.17
2022-09-02T14:38:46.570Z,29.30
2022-09-02T14:41:23.144Z,30.34
2022-09-02T14:43:54.487Z,31.15
2022-09-02T14:46:32.978Z,31.68
2022-09-02T14:49:11.425Z,31.81
2022-09-02T14:52:02.560Z,31.61
2022-09-02T14:54:39.347Z,33.18
2022-09-02T14:57:32.966Z,33.83
2022-09-02T15:00:08.890Z,33.38
2022-09-02T15:02:36.818Z,33.87
2022-09-02T15:05:08.707Z,34.20
2022-09-02T15:07:42.733Z,33.68
2022-09-02T15:10:10.402Z,34.19
2022-09-02T15:12:54.622Z,33.65
2022-09-02T15:15:22.582Z,32.29
2022-09-02T15:17:50.183Z,32.20
2022-09-02T15:20:17.906Z,31.85
2022-09-02T15:22:45.545Z,31.28
2022-09-02T15:25:13.175Z,31.21
2022-09-02T15:27:40.759Z,32.26
2022-09-02T15:30:09.101Z,31.37
2022-09-02T15:32:37.725Z,32.38
2022-09-02T15:35:06.793Z,33.05
2022-09-02T15:37:35.180Z,33.62
2022-09-02T15:40:03.145Z,34.18
2022-09-02T15:42:30.874Z,34.44
2022-09-02T15:44:58.355Z,35.01
2022-09-02T15:47:25.894Z,35.47
2022-09-02T15:49:53.547Z,36.28
2022-09-02T15:52:21.087Z,36.48
2022-09-02T15:54:48.646Z,36.76
2022-09-02T15:57:16.169Z,36.74
2022-09-02T15:59:43.736Z,36.69
2022-09-02T16:02:11.358Z,37.23
2022-09-02T16:04:38.958Z,37.17
2022-09-02T16:07:06.514Z,37.91
2022-09-02T16:09:34.276Z,37.85
2022-09-02T16:12:02.089Z,38.56
2022-09-02T16:14:29.678Z,38.94
2022-09-02T16:16:57.427Z,38.92
2022-09-02T16:19:29.823Z,38.42
2022-09-02T16:21:58.196Z,38.64
2022-09-02T16:24:26.379Z,39.06
2022-09-02T16:26:53.904Z,38.68
2022-09-02T16:29:21.508Z,38.96
2022-09-02T16:32:02.185Z,39.55
2022-09-02T16:34:37.113Z,39.05
2022-09-02T16:37:04.699Z,40.01
2022-09-02T16:39:32.370Z,39.90
2022-09-02T16:42:00.194Z,40.42
2022-09-02T16:44:27.732Z,39.88
2022-09-02T16:46:55.375Z,40.55
2022-09-02T16:49:22.997Z,40.58
2022-09-02T16:51:57.851Z,41.31
2022-09-02T16:54:30.698Z,41.48
2022-09-02T16:57:00.210Z,41.76
2022-09-02T16:59:27.856Z,41.65
2022-09-02T17:01:55.517Z,42.17
2022-09-02T17:04:23.577Z,42.69
2022-09-02T17:06:51.230Z,42.83
2022-09-02T17:09:18.826Z,43.00
2022-09-02T17:11:46.469Z,43.43
2022-09-02T17:14:16.743Z,43.54
2022-09-02T17:16:49.580Z,44.05
2022-09-02T17:19:19.185Z,43.92
2022-09-02T17:21:56.242Z,43.74
2022-09-02T17:24:26.284Z,44.22
2022-09-02T17:26:54.277Z,44.18
2022-09-02T17:32:12.105Z,44.21
2022-09-02T17:34:39.771Z,44.59
2022-09-02T17:37:07.391Z,44.95
2022-09-02T17:39:34.986Z,44.79
2022-09-02T17:42:04.648Z,44.83
2022-09-02T17:44:37.694Z,45.29
2022-09-02T17:47:08.385Z,45.39
2022-09-02T17:49:37.564Z,45.51
2022-09-02T17:52:06.347Z,45.71
2022-09-02T17:54:38.348Z,45.87
2022-09-02T18:00:38.633Z,46.30
2022-09-02T18:03:32.733Z,46.24
2022-09-02T18:06:14.185Z,46.36
2022-09-02T18:09:03.022Z,46.46
2022-09-02T18:11:31.562Z,46.73
2022-09-02T18:14:28.207Z,46.99
2022-09-02T18:17:14.365Z,47.39
2022-09-02T18:20:18.939Z,47.11
2022-09-02T18:22:49.947Z,47.25
2022-09-02T18:26:21.879Z,47.10
2022-09-02T18:29:15.667Z,47.31
2022-09-02T18:31:53.014Z,47.49
2022-09-02T18:34:43.407Z,47.39
2022-09-02T18:37:38.985Z,47.37
2022-09-02T18:40:17.948Z,47.64
2022-09-02T18:43:11.973Z,48.25
2022-09-02T18:45:50.462Z,48.15
2022-09-02T18:48:28.444Z,48.18
2022-09-02T18:51:15.293Z,48.22
2022-09-02T18:53:48.994Z,48.22
2022-09-02T18:56:19.745Z,48.11
2022-09-02T18:58:59.680Z,48.17
2022-09-02T19:01:33.071Z,48.00
2022-09-02T19:04:03.240Z,48.64
2022-09-02T19:06:36.425Z,48.52
2022-09-02T19:09:13.933Z,48.51
2022-09-02T19:11:42.192Z,48.57
2022-09-02T19:14:25.115Z,48.52
2022-09-02T19:16:53.655Z,48.49
2022-09-02T19:19:21.378Z,48.65
2022-09-02T19:22:03.736Z,48.54
2022-09-02T19:31:58.623Z,49.14
2022-09-02T19:34:33.462Z,49.25
2022-09-02T19:40:42.471Z,49.12
2022-09-02T19:43:10.098Z,49.20
2022-09-02T19:45:37.773Z,48.98
2022-09-02T19:48:08.850Z,49.17
2022-09-02T19:50:43.570Z,49.28
2022-09-02T19:53:21.840Z,49.06
2022-09-02T19:55:49.732Z,49.14
2022-09-02T19:58:17.670Z,49.24
2022-09-02T20:00:45.411Z,49.07
2022-09-02T20:03:13.087Z,49.54
2022-09-02T20:05:40.986Z,49.21
2022-09-02T20:08:08.923Z,49.76
2022-09-02T20:10:37.830Z,49.59
2022-09-02T20:13:06.417Z,49.94
2022-09-02T20:15:38.065Z,50.74
2022-09-02T20:18:14.455Z,50.57
2022-09-02T20:20:47.671Z,51.27
2022-09-02T20:23:17.642Z,51.68
2022-09-02T20:26:06.559Z,51.94
2022-09-02T20:28:45.844Z,52.34
2022-09-02T20:31:51.334Z,53.26
2022-09-02T20:34:37.499Z,53.55
2022-09-02T20:37:31.983Z,53.95
2022-09-02T20:40:21.016Z,54.47
2022-09-02T20:43:09.395Z,54.34
2022-09-02T20:45:44.568Z,54.61
2022-09-02T20:48:48.475Z,54.78
2022-09-02T20:51:58.418Z,54.82
2022-09-02T20:54:52.609Z,55.11
2022-09-02T20:57:42.077Z,54.71
2022-09-02T21:00:16.487Z,55.15
2022-09-02T21:02:55.620Z,55.14
2022-09-02T21:05:32.129Z,54.97
2022-09-02T21:08:06.956Z,55.10
2022-09-02T21:10:47.585Z,55.18
2022-09-02T21:13:40.182Z,55.22
2022-09-02T21:16:19.798Z,55.45
2022-09-02T21:18:59.050Z,55.47
2022-09-02T21:21:35.538Z,55.86
2022-09-02T21:24:11.195Z,55.84
2022-09-02T21:26:56.631Z,55.39
2022-09-02T21:29:49.267Z,55.63
2022-09-02T21:32:26.929Z,56.05
2022-09-02T21:35:00.375Z,56.08
2022-09-02T21:37:32.459Z,56.12
2022-09-02T21:40:05.899Z,56.30
2022-09-02T21:42:58.183Z,56.57
2022-09-02T21:45:39.101Z,56.58
2022-09-02T21:48:54.512Z,56.63
2022-09-02T21:51:33.110Z,56.57
2022-09-02T21:54:09.713Z,56.64
2022-09-02T21:57:00.313Z,56.76
2022-09-02T21:59:37.383Z,56.83
2022-09-02T22:02:12.852Z,56.21
2022-09-02T22:05:03.232Z,56.47
2022-09-02T22:08:05.757Z,57.49
2022-09-02T22:10:49.954Z,58.88
2022-09-02T22:13:18.512Z,59.49
2022-09-02T22:16:48.637Z,60.25
2022-09-02T22:19:17.186Z,60.57
2022-09-02T22:22:08.779Z,60.46
2022-09-02T22:24:36.427Z,60.69
2022-09-02T22:30:55.953Z,60.51
2022-09-02T22:33:29.730Z,60.68
2022-09-02T22:36:32.423Z,61.31
2022-09-02T22:38:59.995Z,60.83
2022-09-02T22:41:33.431Z,60.52
2022-09-02T22:47:48.763Z,61.29
2022-09-02T22:50:22.492Z,61.33
2022-09-02T22:52:50.530Z,61.62
2022-09-02T22:55:36.253Z,61.34
2022-09-02T22:58:26.583Z,60.97
2022-09-02T23:05:09.396Z,60.68
2022-09-02T23:07:36.908Z,60.58
2022-09-02T23:10:17.922Z,60.33
2022-09-02T23:13:00.341Z,60.35
2022-09-02T23:24:00.143Z,59.72
2022-09-02T23:26:50.551Z,60.10
2022-09-02T23:29:24.974Z,60.15
2022-09-02T23:32:21.926Z,59.71
2022-09-02T23:39:10.404Z,60.03
2022-09-02T23:41:38.116Z,60.16
2022-09-02T23:44:06.277Z,60.50
2022-09-02T23:46:47.247Z,60.34
2022-09-02T23:49:17.571Z,59.72
2022-09-02T23:56:03.053Z,60.11
2022-09-02T23:58:53.018Z,60.06
